createdAt,value
2023-02-26T00:00:51.358Z,60.80
2023-02-26T00:01:51.405Z,60.80
2023-02-26T00:02:51.421Z,60.90
2023-02-26T00:03:51.351Z,60.90
2023-02-26T00:04:51.322Z,60.80
2023-02-26T00:05:51.332Z,60.90
2023-02-26T00:06:51.316Z,60.90
2023-02-26T00:07:51.318Z,61.00
2023-02-26T00:08:52.014Z,61.00
2023-02-26T00:09:51.309Z,61.11
2023-02-26T00:10:51.253Z,61.11
2023-02-26T00:11:51.277Z,61.11
2023-02-26T00:12:51.257Z,61.32
2023-02-26T00:13:51.246Z,61.52
2023-02-26T00:14:51.240Z,61.52
2023-02-26T00:15:51.262Z,61.42
2023-02-26T00:16:51.303Z,61.52
2023-02-26T00:17:51.231Z,61.63
2023-02-26T00:18:51.190Z,61.63
2023-02-26T00:19:51.211Z,61.63
2023-02-26T00:20:51.158Z,61.63
2023-02-26T00:21:51.183Z,61.63
2023-02-26T00:22:51.144Z,61.83
2023-02-26T00:23:51.136Z,61.83
2023-02-26T00:24:51.131Z,61.73
2023-02-26T00:25:51.143Z,61.73
2023-02-26T00:26:51.120Z,61.63
2023-02-26T00:27:51.128Z,61.63
2023-02-26T00:28:51.135Z,61.83
2023-02-26T00:29:51.086Z,61.73
2023-02-26T00:30:51.079Z,61.63
2023-02-26T00:31:51.208Z,61.73
2023-02-26T00:32:51.077Z,61.83
2023-02-26T00:33:51.029Z,61.94
2023-02-26T00:34:51.004Z,61.83
2023-02-26T00:35:51.014Z,61.94
2023-02-26T00:36:51.004Z,61.94
2023-02-26T00:37:50.998Z,62.18
2023-02-26T00:38:51.007Z,62.18
2023-02-26T00:39:50.965Z,62.15
2023-02-26T00:40:50.961Z,62.26
2023-02-26T00:41:50.946Z,62.28
2023-02-26T00:42:50.948Z,62.36
2023-02-26T00:43:50.928Z,62.39
2023-02-26T00:44:50.936Z,62.36
2023-02-26T00:45:50.978Z,62.36
2023-02-26T00:46:50.887Z,62.36
2023-02-26T00:47:50.900Z,62.46
2023-02-26T00:48:50.873Z,62.46
2023-02-26T00:49:50.897Z,62.36
2023-02-26T00:50:50.870Z,62.36
2023-02-26T00:51:50.854Z,62.36
2023-02-26T00:52:50.855Z,62.36
2023-02-26T00:53:50.815Z,62.36
2023-02-26T00:54:50.797Z,62.36
2023-02-26T00:55:50.806Z,62.57
2023-02-26T00:56:50.782Z,62.67
2023-02-26T00:57:50.883Z,62.67
2023-02-26T00:58:50.778Z,62.67
2023-02-26T00:59:50.765Z,62.57
2023-02-26T01:00:50.744Z,62.57
2023-02-26T01:01:50.789Z,62.36
2023-02-26T01:02:50.725Z,62.46
2023-02-26T01:03:50.753Z,62.57
2023-02-26T01:04:50.725Z,62.57
2023-02-26T01:05:50.683Z,62.46
2023-02-26T01:06:50.695Z,62.46
2023-02-26T01:07:50.689Z,62.46
2023-02-26T01:08:50.695Z,62.57
2023-02-26T01:09:50.685Z,62.57
2023-02-26T01:10:50.647Z,62.67
2023-02-26T01:11:50.627Z,62.88
2023-02-26T01:12:50.670Z,62.98
2023-02-26T01:13:50.615Z,62.77
2023-02-26T01:14:50.615Z,62.88
2023-02-26T01:15:50.638Z,62.88
2023-02-26T01:16:50.613Z,62.98
2023-02-26T01:17:50.593Z,62.88
2023-02-26T01:18:50.566Z,62.88
2023-02-26T01:19:50.549Z,62.98
2023-02-26T01:20:50.558Z,62.77
2023-02-26T01:21:50.534Z,62.64
2023-02-26T01:22:50.710Z,62.54
2023-02-26T01:23:50.493Z,62.67
2023-02-26T01:24:50.501Z,62.88
2023-02-26T01:25:50.476Z,62.64
2023-02-26T01:26:50.486Z,62.77
2023-02-26T01:27:50.477Z,62.75
2023-02-26T01:28:50.501Z,62.77
2023-02-26T01:29:50.444Z,62.96
2023-02-26T01:30:50.576Z,62.96
2023-02-26T01:31:50.614Z,63.09
2023-02-26T01:32:50.437Z,62.96
2023-02-26T01:33:50.431Z,63.06
2023-02-26T01:34:50.401Z,63.17
2023-02-26T01:35:50.402Z,63.06
2023-02-26T01:36:50.390Z,63.17
2023-02-26T01:37:50.366Z,63.27
2023-02-26T01:38:50.358Z,63.37
2023-02-26T01:39:50.322Z,63.27
2023-02-26T01:40:50.371Z,63.48
2023-02-26T01:41:50.323Z,63.27
2023-02-26T01:42:50.334Z,63.37
2023-02-26T01:43:50.289Z,63.48
2023-02-26T01:44:50.285Z,63.58
2023-02-26T01:45:50.260Z,63.58
2023-02-26T01:46:50.346Z,63.37
2023-02-26T01:47:50.259Z,63.48
2023-02-26T01:48:50.251Z,63.48
2023-02-26T01:49:50.246Z,63.37
2023-02-26T01:50:50.240Z,63.48
2023-02-26T01:51:50.250Z,63.71
2023-02-26T01:52:50.232Z,63.82
2023-02-26T01:53:50.198Z,63.92
2023-02-26T01:54:50.205Z,64.13
2023-02-26T01:55:50.180Z,64.13
2023-02-26T01:56:50.190Z,64.23
2023-02-26T01:57:50.157Z,64.23
2023-02-26T01:58:50.158Z,64.45
2023-02-26T01:59:50.131Z,64.65
2023-02-26T02:00:50.141Z,64.55
2023-02-26T02:01:50.118Z,64.55
2023-02-26T02:02:50.200Z,64.86
2023-02-26T02:03:50.094Z,64.97
2023-02-26T02:04:50.078Z,65.28
2023-02-26T02:05:50.079Z,65.38
2023-02-26T02:06:50.072Z,65.52
2023-02-26T02:07:50.055Z,65.41
2023-02-26T02:08:50.048Z,65.59
2023-02-26T02:09:50.025Z,65.70
2023-02-26T02:10:50.033Z,65.80
2023-02-26T02:11:50.007Z,65.91
2023-02-26T02:12:50.003Z,65.91
2023-02-26T02:13:49.991Z,66.22
2023-02-26T02:14:49.994Z,66.42
2023-02-26T02:15:49.962Z,66.63
2023-02-26T02:16:49.975Z,66.74
2023-02-26T02:17:49.973Z,66.85
2023-02-26T02:18:49.956Z,67.19
2023-02-26T02:19:49.904Z,67.57
2023-02-26T02:20:49.927Z,68.62
2023-02-26T02:21:49.898Z,69.56
2023-02-26T02:22:49.903Z,70.60
2023-02-26T02:23:49.881Z,71.04
2023-02-26T02:24:49.889Z,71.88
2023-02-26T02:25:49.844Z,72.09
2023-02-26T02:26:49.861Z,72.41
2023-02-26T02:27:49.830Z,72.61
2023-02-26T02:28:49.835Z,72.51
2023-02-26T02:29:49.821Z,72.51
2023-02-26T07:00:48.756Z,73.33
2023-02-26T07:01:49.394Z,73.23
2023-02-26T07:02:49.660Z,73.23
2023-02-26T07:03:49.403Z,73.33
2023-02-26T07:04:49.429Z,73.33
2023-02-26T07:05:49.400Z,73.23
2023-02-26T07:06:49.370Z,73.02
2023-02-26T07:07:49.371Z,73.13
2023-02-26T07:08:49.377Z,73.33
2023-02-26T07:09:49.318Z,73.23
2023-02-26T07:10:49.412Z,72.81
2023-02-26T07:11:49.310Z,72.81
2023-02-26T07:12:49.327Z,72.92
2023-02-26T07:13:49.280Z,73.02
2023-02-26T07:14:49.281Z,72.99
2023-02-26T07:15:49.258Z,72.92
2023-02-26T07:16:49.287Z,72.88
2023-02-26T07:17:49.235Z,73.09
2023-02-26T07:18:49.308Z,73.09
2023-02-26T07:19:49.228Z,73.09
2023-02-26T07:20:49.223Z,72.99
2023-02-26T07:21:49.198Z,72.99
2023-02-26T07:22:49.229Z,72.88
2023-02-26T07:23:49.174Z,72.88
2023-02-26T07:24:49.183Z,72.88
2023-02-26T07:25:49.150Z,72.88
2023-02-26T07:26:49.158Z,72.78
2023-02-26T07:27:49.131Z,72.78
2023-02-26T07:28:49.182Z,72.88
2023-02-26T07:29:49.113Z,72.88
2023-02-26T07:30:49.192Z,72.78
2023-02-26T07:31:49.186Z,72.64
2023-02-26T07:32:49.102Z,72.53
2023-02-26T07:33:49.081Z,72.64
2023-02-26T07:34:49.092Z,72.53
2023-02-26T07:35:49.074Z,72.43
2023-02-26T07:36:49.046Z,72.33
2023-02-26T07:37:49.026Z,72.43
2023-02-26T07:38:49.032Z,72.53
2023-02-26T07:39:49.009Z,72.53
2023-02-26T07:40:49.013Z,72.75
2023-02-26T07:41:49.013Z,72.43
2023-02-26T07:42:48.994Z,72.33
2023-02-26T07:43:48.971Z,72.30
2023-02-26T07:44:48.980Z,71.88
2023-02-26T07:45:48.997Z,71.77
2023-02-26T07:46:48.965Z,71.67
2023-02-26T07:47:48.929Z,71.77
2023-02-26T07:48:48.925Z,71.77
2023-02-26T07:49:48.923Z,71.77
2023-02-26T07:50:48.910Z,71.56
2023-02-26T07:51:48.895Z,71.56
2023-02-26T07:52:48.936Z,71.25
2023-02-26T07:53:48.873Z,71.11
2023-02-26T07:54:48.876Z,71.22
2023-02-26T07:55:48.860Z,71.11
2023-02-26T07:56:48.826Z,71.11
2023-02-26T07:57:48.858Z,70.90
2023-02-26T07:58:48.852Z,70.80
2023-02-26T07:59:48.831Z,70.90
2023-02-26T08:00:48.796Z,70.80
2023-02-26T08:01:48.879Z,70.80
2023-02-26T08:02:48.764Z,70.80
2023-02-26T08:03:48.832Z,70.59
2023-02-26T08:04:48.758Z,70.04
2023-02-26T08:05:48.766Z,69.51
2023-02-26T08:06:48.721Z,68.99
2023-02-26T08:07:48.725Z,68.37
2023-02-26T08:08:48.699Z,68.37
2023-02-26T08:09:48.752Z,68.37
2023-02-26T08:10:48.721Z,68.47
2023-02-26T08:11:48.695Z,68.47
2023-02-26T08:12:48.664Z,68.37
2023-02-26T08:13:48.689Z,68.37
2023-02-26T08:14:48.685Z,68.16
2023-02-26T08:15:48.692Z,67.95
2023-02-26T08:16:48.642Z,67.85
2023-02-26T08:17:48.629Z,67.53
2023-02-26T08:18:48.608Z,67.32
2023-02-26T08:19:48.606Z,67.32
2023-02-26T08:20:48.608Z,67.11
2023-02-26T08:21:50.019Z,67.43
2023-02-26T08:22:48.565Z,67.32
2023-02-26T08:23:48.566Z,67.22
2023-02-26T08:24:48.535Z,67.11
2023-02-26T08:25:48.553Z,67.01
2023-02-26T08:26:48.544Z,67.11
2023-02-26T08:27:48.530Z,66.80
2023-02-26T08:28:48.533Z,66.69
2023-02-26T08:29:48.503Z,66.59
2023-02-26T08:30:48.541Z,66.59
2023-02-26T08:31:48.588Z,66.17
2023-02-26T08:32:48.577Z,65.97
2023-02-26T08:33:48.475Z,66.17
2023-02-26T08:34:48.457Z,66.38
2023-02-26T08:35:48.448Z,66.49
2023-02-26T08:36:48.445Z,66.59
2023-02-26T08:37:48.428Z,66.49
2023-02-26T08:38:48.393Z,66.69
2023-02-26T08:39:48.412Z,66.80
2023-02-26T08:40:48.374Z,66.49
2023-02-26T08:41:48.418Z,66.59
2023-02-26T08:42:48.385Z,66.07
2023-02-26T08:43:48.372Z,65.97
2023-02-26T08:44:48.352Z,65.86
2023-02-26T08:45:48.341Z,65.65
2023-02-26T08:46:48.360Z,65.44
2023-02-26T08:47:56.556Z,65.44
2023-02-26T08:48:48.301Z,65.65
2023-02-26T08:49:48.290Z,65.65
2023-02-26T08:50:48.297Z,65.86
2023-02-26T08:51:48.280Z,65.97
2023-02-26T08:52:48.271Z,65.75
2023-02-26T08:53:48.278Z,65.62
2023-02-26T08:54:48.243Z,65.83
2023-02-26T08:55:48.285Z,65.94
2023-02-26T08:56:48.219Z,65.73
2023-02-26T08:57:48.261Z,65.83
2023-02-26T08:58:48.208Z,65.83
2023-02-26T08:59:48.215Z,65.83
2023-02-26T09:00:48.173Z,65.83
2023-02-26T09:01:48.184Z,65.62
2023-02-26T09:02:48.181Z,65.62
2023-02-26T09:03:48.176Z,65.41
2023-02-26T09:04:48.137Z,65.20
2023-02-26T09:05:48.153Z,65.10
2023-02-26T09:06:48.125Z,65.10
2023-02-26T09:07:48.204Z,65.31
2023-02-26T09:08:48.120Z,65.28
2023-02-26T09:09:48.112Z,65.07
2023-02-26T09:10:48.106Z,64.97
2023-02-26T09:11:48.078Z,64.65
2023-02-26T09:12:48.051Z,64.45
2023-02-26T09:13:48.062Z,64.13
2023-02-26T09:14:48.033Z,63.92
2023-02-26T09:15:48.053Z,64.13
2023-02-26T09:16:50.662Z,64.45
2023-02-26T09:17:48.129Z,64.65
2023-02-26T09:18:48.000Z,64.45
2023-02-26T09:19:48.007Z,64.55
2023-02-26T09:20:47.972Z,64.34
2023-02-26T09:21:48.000Z,64.45
2023-02-26T09:22:47.980Z,64.45
2023-02-26T09:23:47.976Z,64.45
2023-02-26T09:24:48.037Z,64.55
2023-02-26T09:25:47.936Z,64.31
2023-02-26T09:26:47.913Z,64.31
2023-02-26T09:27:48.152Z,64.31
2023-02-26T09:28:47.912Z,64.11
2023-02-26T09:29:47.915Z,64.00
2023-02-26T09:30:47.938Z,63.89
2023-02-26T09:31:48.079Z,63.87
2023-02-26T09:32:47.945Z,63.34
2023-02-26T09:33:47.850Z,63.24
2023-02-26T09:34:47.871Z,62.82
2023-02-26T09:35:47.838Z,63.00
2023-02-26T09:36:47.827Z,62.48
2023-02-26T09:37:47.822Z,62.17
2023-02-26T09:38:47.806Z,62.27
2023-02-26T09:39:47.789Z,61.96
2023-02-26T09:40:47.799Z,62.07
2023-02-26T09:41:47.775Z,61.96
2023-02-26T09:42:47.813Z,61.76
2023-02-26T09:43:47.774Z,61.88
2023-02-26T09:44:47.726Z,61.99
2023-02-26T09:45:47.834Z,62.30
2023-02-26T09:46:47.708Z,61.96
2023-02-26T09:47:47.708Z,62.07
2023-02-26T09:48:47.705Z,62.17
2023-02-26T09:49:47.712Z,62.17
2023-02-26T09:50:47.676Z,62.07
2023-02-26T09:51:49.831Z,62.07
2023-02-26T09:52:47.666Z,61.86
2023-02-26T09:53:47.651Z,61.86
2023-02-26T09:54:47.641Z,61.76
2023-02-26T09:55:47.792Z,61.54
2023-02-26T09:56:47.611Z,61.33
2023-02-26T09:57:47.611Z,61.54
2023-02-26T09:58:47.603Z,61.44
2023-02-26T09:59:47.590Z,61.65
2023-02-26T10:00:47.573Z,61.96
2023-02-26T10:01:47.608Z,61.76
2023-02-26T10:02:47.546Z,61.44
2023-02-26T10:03:47.652Z,61.54
2023-02-26T10:04:47.561Z,61.54
2023-02-26T10:05:47.540Z,61.65
2023-02-26T10:06:47.522Z,61.96
2023-02-26T10:07:47.513Z,61.86
2023-02-26T10:08:47.513Z,61.93
2023-02-26T10:09:47.496Z,61.93
2023-02-26T10:10:47.502Z,61.93
2023-02-26T10:11:47.517Z,62.04
2023-02-26T10:12:47.478Z,61.83
2023-02-26T10:13:57.065Z,61.62
2023-02-26T10:14:47.468Z,61.52
2023-02-26T10:15:47.435Z,61.31
2023-02-26T10:16:47.467Z,60.89
2023-02-26T10:17:47.427Z,60.58
2023-02-26T10:18:47.379Z,59.95
2023-02-26T10:19:47.493Z,60.06
2023-02-26T10:20:47.416Z,60.16
2023-02-26T10:21:47.368Z,60.16
2023-02-26T10:22:48.667Z,60.37
2023-02-26T10:23:47.360Z,60.58
2023-02-26T10:24:47.357Z,60.37
2023-02-26T10:25:47.354Z,60.68
2023-02-26T10:26:47.310Z,60.55
2023-02-26T10:27:47.336Z,60.45
2023-02-26T10:28:48.742Z,60.45
2023-02-26T10:29:47.277Z,59.93
2023-02-26T10:30:47.310Z,59.82
2023-02-26T10:31:47.345Z,59.69
2023-02-26T10:32:47.351Z,59.48
2023-02-26T10:33:47.281Z,59.38
2023-02-26T10:34:47.228Z,59.59
2023-02-26T10:35:47.217Z,59.17
2023-02-26T10:36:47.206Z,58.44
2023-02-26T10:37:47.201Z,58.65
2023-02-26T10:38:47.203Z,58.52
2023-02-26T10:39:47.178Z,57.79
2023-02-26T10:40:47.162Z,57.90
2023-02-26T10:41:47.155Z,58.42
2023-02-26T10:42:47.134Z,58.42
2023-02-26T10:43:47.175Z,58.31
2023-02-26T10:44:47.113Z,57.90
2023-02-26T10:45:47.160Z,57.69
2023-02-26T10:46:47.099Z,57.90
2023-02-26T10:47:47.103Z,58.00
2023-02-26T10:48:47.081Z,58.00
2023-02-26T10:49:47.163Z,57.87
2023-02-26T10:50:47.050Z,57.35
2023-02-26T10:51:47.113Z,57.14
2023-02-26T10:52:47.029Z,56.83
2023-02-26T10:53:47.045Z,56.73
2023-02-26T10:54:47.037Z,56.73
2023-02-26T10:55:47.035Z,56.83
2023-02-26T10:56:47.042Z,57.04
2023-02-26T10:57:46.999Z,56.62
2023-02-26T10:58:46.976Z,56.49
2023-02-26T10:59:46.988Z,56.70
2023-02-26T11:00:46.945Z,56.18
2023-02-26T11:01:47.014Z,55.66
2023-02-26T11:02:47.007Z,55.25
2023-02-26T11:03:46.924Z,55.35
2023-02-26T11:04:50.150Z,55.25
2023-02-26T11:05:46.912Z,55.15
2023-02-26T11:06:46.882Z,55.04
2023-02-26T11:07:46.909Z,55.15
2023-02-26T11:08:46.874Z,55.25
2023-02-26T11:09:46.892Z,55.15
2023-02-26T11:10:46.870Z,54.94
2023-02-26T11:11:46.889Z,55.04
2023-02-26T11:12:46.832Z,55.46
2023-02-26T11:13:46.822Z,55.56
2023-02-26T11:14:46.841Z,55.74
2023-02-26T11:15:46.833Z,55.22
2023-02-26T11:16:47.554Z,54.39
2023-02-26T11:17:46.787Z,54.39
2023-02-26T11:18:46.762Z,54.50
2023-02-26T11:19:46.770Z,54.71
2023-02-26T11:20:46.761Z,54.71
2023-02-26T11:21:46.817Z,54.91
2023-02-26T11:22:46.750Z,54.60
2023-02-26T11:23:46.725Z,54.39
2023-02-26T11:24:46.705Z,53.98
2023-02-26T11:25:46.716Z,53.67
2023-02-26T11:26:46.705Z,53.67
2023-02-26T11:27:46.696Z,53.44
2023-02-26T11:28:46.683Z,53.44
2023-02-26T11:29:46.709Z,53.33
2023-02-26T11:30:46.763Z,53.12
2023-02-26T11:31:46.720Z,53.44
2023-02-26T11:32:46.711Z,53.02
2023-02-26T11:33:46.613Z,53.44
2023-02-26T11:34:46.625Z,53.02
2023-02-26T11:35:46.604Z,52.92
2023-02-26T11:36:46.609Z,52.81
2023-02-26T11:37:46.775Z,52.81
2023-02-26T11:38:46.580Z,53.02
2023-02-26T11:39:46.581Z,53.33
2023-02-26T11:40:46.528Z,53.64
2023-02-26T11:41:46.588Z,53.23
2023-02-26T11:42:46.545Z,53.10
2023-02-26T11:43:46.511Z,53.00
2023-02-26T11:44:46.499Z,52.89
2023-02-26T11:45:46.500Z,53.10
2023-02-26T11:46:46.466Z,53.00
2023-02-26T11:47:46.473Z,52.58
2023-02-26T11:48:46.474Z,52.35
2023-02-26T11:49:46.468Z,52.66
2023-02-26T11:50:46.471Z,52.35
2023-02-26T11:51:46.558Z,52.56
2023-02-26T11:52:46.487Z,52.56
2023-02-26T11:53:46.415Z,52.45
2023-02-26T11:54:46.418Z,52.45
2023-02-26T11:55:46.381Z,51.83
2023-02-26T11:56:46.382Z,51.83
2023-02-26T11:57:46.389Z,51.73
2023-02-26T11:58:46.339Z,51.73
2023-02-26T11:59:46.342Z,51.83
2023-02-26T12:00:46.355Z,51.83
2023-02-26T12:01:46.322Z,52.04
2023-02-26T12:02:46.396Z,51.81
2023-02-26T12:03:46.431Z,51.91
2023-02-26T12:04:46.283Z,51.91
2023-02-26T12:05:46.293Z,50.77
2023-02-26T12:06:46.272Z,51.18
2023-02-26T12:07:46.264Z,51.18
2023-02-26T12:08:46.237Z,51.08
2023-02-26T12:09:46.241Z,50.77
2023-02-26T12:10:46.233Z,51.08
2023-02-26T12:11:46.195Z,50.77
2023-02-26T12:12:46.207Z,50.35
2023-02-26T12:13:46.167Z,49.73
2023-02-26T12:14:46.193Z,49.94
2023-02-26T12:15:46.222Z,49.42
2023-02-26T12:16:46.165Z,49.52
2023-02-26T12:17:46.137Z,49.84
2023-02-26T12:18:46.132Z,49.94
2023-02-26T12:19:46.144Z,50.15
2023-02-26T12:20:46.147Z,50.25
2023-02-26T12:21:46.141Z,49.94
2023-02-26T12:22:46.095Z,49.84
2023-02-26T12:23:46.086Z,49.73
2023-02-26T12:24:47.657Z,49.94
2023-02-26T12:25:46.067Z,49.32
2023-02-26T12:26:46.088Z,49.42
2023-02-26T12:27:46.167Z,49.11
2023-02-26T12:28:46.039Z,49.01
2023-02-26T12:29:45.998Z,48.80
2023-02-26T12:30:46.023Z,49.32
2023-02-26T12:31:46.081Z,49.32
2023-02-26T12:32:46.069Z,49.63
2023-02-26T12:33:45.995Z,49.63
2023-02-26T12:34:45.990Z,48.80
2023-02-26T12:35:45.945Z,49.21
2023-02-26T12:36:49.225Z,49.01
2023-02-26T12:37:45.922Z,49.11
2023-02-26T12:38:45.957Z,49.11
2023-02-26T12:39:45.912Z,48.69
2023-02-26T12:40:45.956Z,49.01
2023-02-26T12:41:45.887Z,49.42
2023-02-26T12:42:45.896Z,49.42
2023-02-26T12:43:45.897Z,49.73
2023-02-26T12:44:45.871Z,49.52
2023-02-26T12:45:45.860Z,49.63
2023-02-26T12:46:45.906Z,49.84
2023-02-26T12:47:45.834Z,49.94
2023-02-26T12:48:45.832Z,50.25
2023-02-26T12:49:45.797Z,49.94
2023-02-26T12:50:45.807Z,49.63
2023-02-26T12:51:45.787Z,49.73
2023-02-26T12:52:45.795Z,49.11
2023-02-26T12:53:45.759Z,49.11
2023-02-26T12:54:45.783Z,49.21
2023-02-26T12:55:45.743Z,48.90
2023-02-26T12:56:45.744Z,49.21
2023-02-26T12:57:45.764Z,49.21
2023-02-26T12:58:45.720Z,48.90
2023-02-26T12:59:45.722Z,49.11
2023-02-26T13:00:45.791Z,49.01
2023-02-26T13:01:59.561Z,49.11
2023-02-26T13:02:45.689Z,49.21
2023-02-26T13:03:45.729Z,49.30
2023-02-26T13:04:45.654Z,48.99
2023-02-26T13:05:45.642Z,48.88
2023-02-26T13:06:45.637Z,48.78
2023-02-26T13:07:45.647Z,48.78
2023-02-26T13:08:45.642Z,48.78
2023-02-26T13:09:45.585Z,48.88
2023-02-26T13:10:45.616Z,48.99
2023-02-26T13:11:45.573Z,49.51
2023-02-26T13:12:45.562Z,49.40
2023-02-26T13:13:45.558Z,49.40
2023-02-26T13:14:45.556Z,48.99
2023-02-26T13:15:45.689Z,49.07
2023-02-26T13:16:45.580Z,48.86
2023-02-26T13:17:45.557Z,48.96
2023-02-26T13:18:46.186Z,49.07
2023-02-26T13:19:45.476Z,49.07
2023-02-26T13:20:45.488Z,49.07
2023-02-26T13:21:45.463Z,48.65
2023-02-26T13:22:45.487Z,48.55
2023-02-26T13:23:45.460Z,48.55
2023-02-26T13:24:45.443Z,48.96
2023-02-26T13:25:45.511Z,48.44
2023-02-26T13:26:45.477Z,48.13
2023-02-26T13:27:45.404Z,48.03
2023-02-26T13:28:45.420Z,48.24
2023-02-26T13:29:45.423Z,48.75
2023-02-26T13:30:45.409Z,48.44
2023-02-26T13:31:45.536Z,48.75
2023-02-26T13:32:45.602Z,48.34
2023-02-26T13:33:45.392Z,48.55
2023-02-26T13:34:45.471Z,48.43
2023-02-26T13:35:45.371Z,48.53
2023-02-26T13:36:45.325Z,48.43
2023-02-26T13:37:45.401Z,48.22
2023-02-26T13:38:45.336Z,48.32
2023-02-26T13:39:45.360Z,48.22
2023-02-26T13:40:45.304Z,48.11
2023-02-26T13:41:45.266Z,48.03
2023-02-26T13:42:45.294Z,48.03
2023-02-26T13:43:45.342Z,48.13
2023-02-26T13:44:45.236Z,48.65
2023-02-26T13:45:45.392Z,48.34
2023-02-26T13:46:45.214Z,48.34
2023-02-26T13:47:45.240Z,48.44
2023-02-26T13:48:45.186Z,48.55
2023-02-26T13:49:45.167Z,48.34
2023-02-26T13:50:45.208Z,48.44
2023-02-26T13:51:45.145Z,48.44
2023-02-26T13:52:45.153Z,48.34
2023-02-26T13:53:45.119Z,48.16
2023-02-26T13:54:45.147Z,48.16
2023-02-26T13:55:45.112Z,47.85
2023-02-26T13:56:45.137Z,47.74
2023-02-26T13:57:45.079Z,47.33
2023-02-26T13:58:45.094Z,47.12
2023-02-26T13:59:45.063Z,47.02
2023-02-26T14:00:45.087Z,47.12
2023-02-26T14:01:45.092Z,47.33
2023-02-26T14:02:45.070Z,47.33
2023-02-26T14:03:45.014Z,47.33
2023-02-26T14:04:45.101Z,47.02
2023-02-26T14:05:44.987Z,47.14
2023-02-26T14:06:45.001Z,47.04
2023-02-26T14:07:44.971Z,46.94
2023-02-26T14:08:44.975Z,47.04
2023-02-26T14:09:44.968Z,47.33
2023-02-26T14:10:44.998Z,47.22
2023-02-26T14:11:44.925Z,46.91
2023-02-26T14:12:44.934Z,46.60
2023-02-26T14:13:44.921Z,46.27
2023-02-26T14:14:44.930Z,46.06
2023-02-26T14:15:44.891Z,45.86
2023-02-26T14:16:44.956Z,45.63
2023-02-26T14:17:44.868Z,46.45
2023-02-26T14:18:44.873Z,46.23
2023-02-26T14:19:44.842Z,47.06
2023-02-26T14:20:44.870Z,47.16
2023-02-26T14:21:44.819Z,47.57
2023-02-26T14:22:44.825Z,47.76
2023-02-26T14:23:44.817Z,48.17
2023-02-26T14:24:44.800Z,48.38
2023-02-26T14:25:44.802Z,48.38
2023-02-26T14:26:44.782Z,48.58
2023-02-26T14:27:44.765Z,48.48
2023-02-26T14:28:44.779Z,48.69
2023-02-26T14:29:44.828Z,48.38
2023-02-26T14:30:44.900Z,48.90
2023-02-26T14:31:44.815Z,49.00
2023-02-26T14:32:44.780Z,48.38
2023-02-26T14:33:44.687Z,48.07
2023-02-26T14:34:44.700Z,47.66
2023-02-26T14:35:44.667Z,47.86
2023-02-26T14:36:44.694Z,47.66
2023-02-26T14:37:44.646Z,47.42
2023-02-26T14:38:44.653Z,47.63
2023-02-26T14:39:44.627Z,47.42
2023-02-26T14:40:44.631Z,46.81
2023-02-26T14:41:44.601Z,47.02
2023-02-26T14:42:44.620Z,46.70
2023-02-26T14:43:44.593Z,47.02
2023-02-26T14:44:44.588Z,46.91
2023-02-26T14:45:44.680Z,46.68
2023-02-26T14:46:44.566Z,46.06
2023-02-26T14:47:44.570Z,46.06
2023-02-26T14:48:44.557Z,46.58
2023-02-26T14:49:44.539Z,46.47
2023-02-26T14:50:44.596Z,46.25
2023-02-26T14:51:44.515Z,46.04
2023-02-26T14:52:44.503Z,45.73
2023-02-26T14:53:44.492Z,45.21
2023-02-26T14:54:44.485Z,44.90
2023-02-26T14:55:44.457Z,44.70
2023-02-26T14:56:44.454Z,44.62
2023-02-26T14:57:44.443Z,44.82
2023-02-26T14:58:44.442Z,44.31
2023-02-26T14:59:44.450Z,43.99
2023-02-26T15:00:44.417Z,43.99
2023-02-26T15:01:44.473Z,43.59
2023-02-26T15:02:44.435Z,43.91
2023-02-26T15:03:44.375Z,44.53
2023-02-26T15:04:44.400Z,44.53
2023-02-26T15:05:44.355Z,45.15
2023-02-26T15:06:44.373Z,44.82
2023-02-26T15:07:44.339Z,44.93
2023-02-26T15:08:44.337Z,45.44
2023-02-26T15:09:44.316Z,45.54
2023-02-26T15:10:44.338Z,45.54
2023-02-26T15:11:44.290Z,45.34
2023-02-26T15:12:44.317Z,45.34
2023-02-26T15:13:44.282Z,44.82
2023-02-26T15:14:44.299Z,44.93
2023-02-26T15:15:44.372Z,44.72
2023-02-26T15:16:44.261Z,44.93
2023-02-26T15:17:44.231Z,44.82
2023-02-26T15:18:44.234Z,44.51
2023-02-26T15:19:44.213Z,44.64
2023-02-26T15:20:44.244Z,44.64
2023-02-26T15:21:44.195Z,44.76
2023-02-26T15:22:44.198Z,44.76
2023-02-26T15:23:44.161Z,44.76
2023-02-26T15:24:44.171Z,45.17
2023-02-26T15:25:44.160Z,45.28
2023-02-26T15:26:44.189Z,44.86
2023-02-26T15:27:44.130Z,45.20
2023-02-26T15:28:44.129Z,45.07
2023-02-26T15:29:44.105Z,45.40
2023-02-26T15:30:44.192Z,45.50
2023-02-26T15:31:44.430Z,44.89
2023-02-26T15:32:44.234Z,44.99
2023-02-26T15:33:44.069Z,45.09
2023-02-26T15:34:44.074Z,45.50
2023-02-26T15:35:44.042Z,45.61
2023-02-26T15:36:44.052Z,45.61
2023-02-26T15:37:44.019Z,45.94
2023-02-26T15:38:44.048Z,46.15
2023-02-26T15:39:44.020Z,46.36
2023-02-26T15:40:43.996Z,46.36
2023-02-26T15:41:43.981Z,46.25
2023-02-26T15:42:43.986Z,46.15
2023-02-26T15:43:43.962Z,46.45
2023-02-26T15:44:56.467Z,45.84
2023-02-26T15:45:43.986Z,45.94
2023-02-26T15:46:44.004Z,45.73
2023-02-26T15:47:43.955Z,45.75
2023-02-26T15:48:43.919Z,45.96
2023-02-26T15:49:43.909Z,46.37
2023-02-26T15:50:43.931Z,46.37
2023-02-26T15:51:43.872Z,46.06
2023-02-26T15:52:43.886Z,45.96
2023-02-26T15:53:43.856Z,46.06
2023-02-26T15:54:43.878Z,45.96
2023-02-26T15:55:43.836Z,45.86
2023-02-26T15:56:43.882Z,46.06
2023-02-26T15:57:43.954Z,45.54
2023-02-26T15:58:43.815Z,45.67
2023-02-26T15:59:43.785Z,45.98
2023-02-26T16:00:43.787Z,46.40
2023-02-26T16:01:43.780Z,46.50
2023-02-26T16:02:43.800Z,46.40
2023-02-26T16:03:43.748Z,46.40
2023-02-26T16:04:43.746Z,46.70
2023-02-26T16:05:43.730Z,46.70
2023-02-26T16:06:43.727Z,46.70
2023-02-26T16:07:43.783Z,46.70
2023-02-26T16:08:43.728Z,46.94
2023-02-26T16:09:43.701Z,47.25
2023-02-26T16:10:43.717Z,47.22
2023-02-26T16:11:43.654Z,47.12
2023-02-26T16:12:43.666Z,46.73
2023-02-26T16:13:43.760Z,46.94
2023-02-26T16:14:43.656Z,46.73
2023-02-26T16:15:43.649Z,46.62
2023-02-26T16:16:43.633Z,46.83
2023-02-26T16:17:43.616Z,46.83
2023-02-26T16:18:43.594Z,47.04
2023-02-26T16:19:43.591Z,47.25
2023-02-26T16:20:43.572Z,46.73
2023-02-26T16:21:43.552Z,46.83
2023-02-26T16:22:43.607Z,46.62
2023-02-26T16:23:43.537Z,46.62
2023-02-26T16:24:43.543Z,46.75
2023-02-26T16:25:43.550Z,46.95
2023-02-26T16:26:43.506Z,46.75
2023-02-26T16:27:43.513Z,46.85
2023-02-26T16:28:43.520Z,46.95
2023-02-26T16:29:43.493Z,47.19
2023-02-26T16:30:43.477Z,47.39
2023-02-26T16:31:43.665Z,47.50
2023-02-26T16:32:43.462Z,47.29
2023-02-26T16:33:43.448Z,47.29
2023-02-26T16:34:43.426Z,47.39
2023-02-26T16:35:43.417Z,47.50
2023-02-26T16:36:43.390Z,47.31
2023-02-26T16:37:43.396Z,47.52
2023-02-26T16:38:43.382Z,47.52
2023-02-26T16:39:43.496Z,47.73
2023-02-26T16:40:43.353Z,47.73
2023-02-26T16:41:43.342Z,47.73
2023-02-26T16:42:43.383Z,47.54
2023-02-26T16:43:43.350Z,47.64
2023-02-26T16:44:43.314Z,47.85
2023-02-26T16:45:43.309Z,47.96
2023-02-26T16:46:43.330Z,48.06
2023-02-26T16:47:43.282Z,48.16
2023-02-26T16:48:43.281Z,48.37
2023-02-26T16:49:43.295Z,48.58
2023-02-26T16:50:43.253Z,48.68
2023-02-26T16:51:43.239Z,48.68
2023-02-26T16:52:43.221Z,48.68
2023-02-26T16:53:43.239Z,48.89
2023-02-26T16:54:43.215Z,48.89
2023-02-26T16:55:43.261Z,49.10
2023-02-26T16:56:43.186Z,49.33
2023-02-26T16:57:43.198Z,49.33
2023-02-26T16:58:43.165Z,49.54
2023-02-26T16:59:43.205Z,49.64
2023-02-26T17:00:43.173Z,49.85
2023-02-26T17:01:43.133Z,49.85
2023-02-26T17:02:43.117Z,49.95
2023-02-26T17:03:43.186Z,50.05
2023-02-26T17:04:43.118Z,50.05
2023-02-26T17:05:43.123Z,50.39
2023-02-26T17:06:43.100Z,50.39
2023-02-26T17:07:43.099Z,50.49
2023-02-26T17:08:43.113Z,50.39
2023-02-26T17:09:43.060Z,50.49
2023-02-26T17:10:43.039Z,50.49
2023-02-26T17:11:44.369Z,50.60
2023-02-26T17:12:43.006Z,50.70
2023-02-26T17:13:43.027Z,50.70
2023-02-26T17:14:43.004Z,50.81
2023-02-26T17:15:43.010Z,50.91
2023-02-26T17:16:42.989Z,51.01
2023-02-26T17:17:42.984Z,51.12
2023-02-26T17:18:42.983Z,51.22
2023-02-26T17:19:42.968Z,51.12
2023-02-26T17:20:42.932Z,51.12
2023-02-26T17:21:42.921Z,51.32
2023-02-26T17:22:42.919Z,51.43